createdAt,value
2019-03-03T00:05:24.630Z,98869.98
2019-03-03T00:15:25.499Z,98873.73
2019-03-03T00:25:28.135Z,98881.95
2019-03-03T00:35:31.656Z,98879.09
2019-03-03T00:45:36.468Z,98878.13
2019-03-03T00:55:37.148Z,98858.75
2019-03-03T01:05:38.857Z,98845.52
2019-03-03T01:15:39.539Z,98844.04
2019-03-03T01:25:45.848Z,98839.61
2019-03-03T01:35:52.150Z,98841.13
2019-03-03T01:45:55.746Z,98835.59
2019-03-03T01:55:57.430Z,98801.44
2019-03-03T02:06:00.175Z,98798.53
2019-03-03T02:16:00.856Z,98784.67
2019-03-03T02:26:02.660Z,98786.95
2019-03-03T02:36:03.345Z,98813.87
2019-03-03T02:46:04.030Z,98804.72
2019-03-03T02:56:04.715Z,98770.48
2019-03-03T03:06:06.684Z,98764.47
2019-03-03T03:16:07.403Z,98747.55
2019-03-03T03:26:09.134Z,98742.34
2019-03-03T03:36:10.049Z,98734.39
2019-03-03T03:46:10.795Z,98731.94
2019-03-03T03:56:11.589Z,98729.97
2019-03-03T04:06:19.359Z,98719.36
2019-03-03T04:16:20.030Z,98718.36
2019-03-03T04:26:22.752Z,98696.39
2019-03-03T04:36:27.332Z,98701.27
2019-03-03T04:46:28.009Z,98691.85
2019-03-03T04:56:28.958Z,98678.34
2019-03-03T05:06:29.915Z,98675.06
2019-03-03T05:16:31.509Z,98654.70
2019-03-03T05:26:33.214Z,98654.67
2019-03-03T05:36:34.906Z,98651.40
2019-03-03T05:46:35.597Z,98637.72
2019-03-03T05:56:38.462Z,98619.17
2019-03-03T06:06:39.129Z,98619.78
2019-03-03T06:16:42.079Z,98609.69
2019-03-03T06:26:43.038Z,98611.33
2019-03-03T06:36:43.952Z,98607.37
2019-03-03T06:46:44.837Z,98609.00
2019-03-03T06:56:45.756Z,98600.33
2019-03-03T07:06:46.400Z,98616.09
2019-03-03T07:16:47.320Z,98612.96
2019-03-03T07:26:48.003Z,98617.05
2019-03-03T07:36:48.939Z,98619.88
2019-03-03T07:46:49.664Z,98620.80
2019-03-03T07:56:51.441Z,98629.47
2019-03-03T08:06:53.428Z,98617.52
2019-03-03T08:16:54.438Z,98620.67
2019-03-03T08:26:55.142Z,98621.09
2019-03-03T08:36:55.853Z,98598.34
2019-03-03T08:46:56.562Z,98588.02
2019-03-03T08:56:57.443Z,98528.18
2019-03-03T09:06:58.091Z,98547.99
2019-03-03T09:16:58.789Z,98540.77
2019-03-03T09:26:59.466Z,98582.54
2019-03-03T09:37:00.387Z,98580.48
2019-03-03T09:47:01.100Z,98596.91
2019-03-03T09:57:01.819Z,98592.56
2019-03-03T10:07:02.978Z,98594.90
2019-03-03T10:17:03.957Z,98607.33
2019-03-03T10:27:04.649Z,98603.48
2019-03-03T10:37:05.689Z,98604.29
2019-03-03T10:47:06.718Z,98594.69
2019-03-03T10:57:08.442Z,98587.83
2019-03-03T11:07:09.160Z,98570.53
2019-03-03T11:17:10.942Z,98577.77
2019-03-03T11:27:12.556Z,98570.55
2019-03-03T11:37:14.267Z,98554.63
2019-03-03T11:47:15.747Z,98561.79
2019-03-03T11:57:25.227Z,98586.91
2019-03-03T12:11:44.844Z,98682.83
2019-03-03T12:17:29.813Z,98596.75
2019-03-03T12:27:30.848Z,98525.87
2019-03-03T12:37:31.778Z,98474.20
2019-03-03T12:47:33.649Z,98462.77
2019-03-03T12:57:34.450Z,98432.09
2019-03-03T13:07:35.185Z,98415.05
2019-03-03T13:17:35.847Z,98403.18
2019-03-03T13:27:36.612Z,98394.14
2019-03-03T13:37:39.020Z,98413.66
2019-03-03T13:47:43.096Z,98419.34
2019-03-03T13:57:45.242Z,98400.52
2019-03-03T14:07:46.180Z,98386.24
2019-03-03T14:17:47.121Z,98379.76
2019-03-03T14:27:48.172Z,98362.78
2019-03-03T14:37:50.249Z,98349.36
2019-03-03T14:47:53.071Z,98313.12
2019-03-03T14:57:53.861Z,98310.38
2019-03-03T15:07:56.608Z,98308.70
2019-03-03T15:28:26.038Z,98288.59
2019-03-03T15:38:35.853Z,98259.02
2019-03-03T15:59:55.150Z,98246.88
2019-03-03T16:20:07.057Z,98200.94
2019-03-03T16:30:20.982Z,98202.75
2019-03-03T16:40:39.876Z,98203.38
2019-03-03T16:50:37.050Z,98190.67
2019-03-03T17:00:37.564Z,98182.31
2019-03-03T17:10:38.205Z,98176.59
2019-03-03T17:20:38.908Z,98162.46
2019-03-03T17:30:39.583Z,98150.88
2019-03-03T17:40:41.327Z,98130.52
2019-03-03T17:50:41.980Z,98122.14
2019-03-03T18:00:42.701Z,98108.17
2019-03-03T18:10:44.651Z,98097.56
2019-03-03T18:20:46.381Z,98112.87
2019-03-03T18:30:49.052Z,98105.52
2019-03-03T18:40:55.625Z,98087.87
2019-03-03T18:50:57.579Z,98090.17
2019-03-03T19:00:58.233Z,98098.25
2019-03-03T19:10:58.955Z,98096.71
2019-03-03T19:20:59.610Z,98079.17
2019-03-03T19:31:01.311Z,98057.32
2019-03-03T19:41:02.010Z,98032.80
2019-03-03T19:51:03.421Z,98035.33
2019-03-03T20:01:04.411Z,98024.40
2019-03-03T20:11:05.319Z,98001.86
2019-03-03T20:21:05.952Z,98008.14
2019-03-03T20:31:06.644Z,97975.01
2019-03-03T20:41:07.561Z,97957.70
2019-03-03T20:51:09.249Z,97960.01
2019-03-03T21:01:10.459Z,97942.44
2019-03-03T21:11:11.356Z,97933.11
2019-03-03T21:21:12.237Z,97913.02
2019-03-03T21:31:13.165Z,97916.73
2019-03-03T21:41:14.040Z,97899.44
2019-03-03T21:51:14.908Z,97892.72
2019-03-03T22:01:15.550Z,97868.47
2019-03-03T22:11:16.252Z,97852.58
2019-03-03T22:21:17.175Z,97839.58
2019-03-03T22:31:17.941Z,97812.41
2019-03-03T22:41:18.596Z,97821.39
2019-03-03T22:51:19.530Z,97783.67
2019-03-03T23:01:20.620Z,97755.98
2019-03-03T23:11:34.129Z,97756.49
2019-03-03T23:21:47.870Z,97734.22
2019-03-03T23:31:48.709Z,97738.56
2019-03-03T23:41:49.427Z,97717.80
2019-03-03T23:51:50.380Z,97723.02
